Time;durP1;ratioP1;P1;durP2;ratioP2;P2;SDS_P1;SDS_P2;PMS_P1;PMS_P2;Temp;Humidity;BMP_temperature;BMP_pressure;BME280_temperature;BME280_humidity;BME280_pressure;Samples;Min_cycle;Max_cycle;Signal;HPM_P1;HPM_P2
2022/10/18 00:01:59;;;;;;;8.80;4.35;;;14.00;99.90;;;;;;4977018;28;20030;-72
2022/10/18 00:04:24;;;;;;;10.13;4.70;;;14.00;99.90;;;;;;4977555;28;20414;-71
2022/10/18 00:06:50;;;;;;;12.27;4.38;;;14.00;99.90;;;;;;4976733;28;20042;-73
2022/10/18 00:09:15;;;;;;;8.52;4.53;;;14.00;99.90;;;;;;4975963;28;20830;-72
2022/10/18 00:11:41;;;;;;;7.53;3.70;;;14.00;99.90;;;;;;4983105;28;20042;-71
2022/10/18 00:14:07;;;;;;;10.23;4.07;;;13.90;99.90;;;;;;4974092;28;20038;-71
2022/10/18 00:16:32;;;;;;;7.70;3.92;;;13.90;99.90;;;;;;4978413;28;20030;-72
2022/10/18 00:18:58;;;;;;;6.57;3.60;;;13.90;99.90;;;;;;4977961;28;20449;-71
2022/10/18 00:21:25;;;;;;;7.15;3.90;;;13.90;99.90;;;;;;4975651;28;20057;-70
2022/10/18 00:23:52;;;;;;;10.13;4.30;;;13.80;99.90;;;;;;4974658;28;20446;-72
2022/10/18 00:26:19;;;;;;;9.10;4.70;;;13.80;99.90;;;;;;4977227;28;20030;-71
2022/10/18 00:28:48;;;;;;;15.15;5.15;;;13.70;99.90;;;;;;4974854;28;20042;-71
2022/10/18 00:31:23;;;;;;;8.15;3.95;;;13.70;99.90;;;;;;4978200;28;20136;-72
2022/10/18 00:33:53;;;;;;;9.43;5.15;;;13.70;99.90;;;;;;4969535;28;20027;-72
2022/10/18 00:36:19;;;;;;;10.50;4.07;;;13.60;99.90;;;;;;4977541;28;20038;-72
2022/10/18 00:38:46;;;;;;;11.70;4.30;;;13.60;99.90;;;;;;4970301;28;20043;-72
2022/10/18 00:41:16;;;;;;;9.48;3.70;;;13.60;99.90;;;;;;4974569;28;20031;-72
2022/10/18 00:43:58;;;;;;;8.18;3.25;;;13.60;99.90;;;;;;4976968;28;20073;-72
2022/10/18 00:46:27;;;;;;;9.35;3.88;;;13.60;99.90;;;;;;4969203;28;20529;-72
2022/10/18 00:48:55;;;;;;;7.35;3.33;;;13.50;99.90;;;;;;4973026;28;20058;-73
2022/10/18 00:51:24;;;;;;;6.45;3.35;;;13.50;99.90;;;;;;4975618;28;20061;-71
2022/10/18 00:53:50;;;;;;;8.80;3.72;;;13.50;99.90;;;;;;4974026;28;20034;-71
2022/10/18 00:56:16;;;;;;;5.55;3.20;;;13.40;99.90;;;;;;4974014;28;20045;-71
2022/10/18 00:58:43;;;;;;;5.85;2.80;;;13.40;99.90;;;;;;4982168;28;20026;-71
2022/10/18 01:01:08;;;;;;;7.88;3.40;;;13.30;99.90;;;;;;4974929;28;20045;-72
2022/10/18 01:03:36;;;;;;;4.78;2.78;;;13.30;99.90;;;;;;4977483;28;20038;-72
2022/10/18 01:06:01;;;;;;;3.00;2.30;;;13.30;99.90;;;;;;4975111;28;20084;-72
2022/10/18 01:08:31;;;;;;;5.57;3.10;;;13.30;99.90;;;;;;4978209;28;20042;-72
2022/10/18 01:11:03;;;;;;;10.80;2.87;;;13.30;99.90;;;;;;4974866;28;20046;-71
2022/10/18 01:13:50;;;;;;;9.38;2.38;;;13.20;99.90;;;;;;4975674;28;20360;-71
2022/10/18 01:16:22;;;;;;;12.07;2.50;;;13.30;99.90;;;;;;4976392;28;20035;-71
2022/10/18 01:19:11;;;;;;;4.43;2.13;;;13.20;99.90;;;;;;4974664;28;20130;-71
2022/10/18 01:21:54;;;;;;;8.30;2.13;;;13.30;99.90;;;;;;4964818;28;20062;-72
2022/10/18 01:24:37;;;;;;;10.45;2.33;;;13.30;99.90;;;;;;4976215;28;20054;-72
2022/10/18 01:27:18;;;;;;;8.43;2.28;;;13.30;99.90;;;;;;4971859;28;20035;-71
2022/10/18 01:30:17;;;;;;;4.82;1.75;;;13.30;99.90;;;;;;4966695;28;20030;-71
2022/10/18 01:32:48;;;;;;;5.30;1.90;;;13.30;99.90;;;;;;4973384;28;20034;-70
2022/10/18 01:35:16;;;;;;;;;;;13.30;99.90;;;;;;4969976;28;21006;-71
2022/10/18 01:37:45;;;;;;;9.52;2.10;;;13.40;99.90;;;;;;4975289;28;19929;-73
2022/10/18 01:40:13;;;;;;;7.15;2.40;;;13.40;99.90;;;;;;4973695;28;20039;-71
2022/10/18 01:42:39;;;;;;;11.07;2.40;;;13.40;99.90;;;;;;4976659;28;20084;-72
2022/10/18 01:45:06;;;;;;;9.48;1.50;;;13.40;99.90;;;;;;4973913;28;20026;-71
2022/10/18 01:47:34;;;;;;;11.40;1.83;;;13.40;99.90;;;;;;4968860;28;20835;-73
2022/10/18 01:50:02;;;;;;;8.07;1.73;;;13.40;99.90;;;;;;4971941;28;20031;-72
2022/10/18 01:52:28;;;;;;;3.17;1.40;;;13.40;99.90;;;;;;4976572;28;20259;-72
2022/10/18 01:54:55;;;;;;;4.57;1.95;;;13.30;99.90;;;;;;4972770;28;20046;-72
2022/10/18 01:57:42;;;;;;;4.72;1.80;;;13.30;99.90;;;;;;4976610;28;20058;-71
2022/10/18 02:00:21;;;;;;;11.55;2.65;;;13.30;99.90;;;;;;4968746;28;20420;-71
2022/10/18 02:02:56;;;;;;;3.97;1.40;;;13.20;99.90;;;;;;4977480;28;20371;-71
2022/10/18 02:05:31;;;;;;;5.82;1.30;;;13.20;99.90;;;;;;4973489;28;20130;-71
2022/10/18 02:08:33;;;;;;;6.70;1.65;;;13.20;99.90;;;;;;4979696;28;20026;-71
2022/10/18 02:11:04;;;;;;;5.53;1.55;;;13.20;99.90;;;;;;4957832;28;20034;-72
2022/10/18 02:13:35;;;;;;;13.25;1.85;;;13.20;99.90;;;;;;4971245;28;20053;-72
2022/10/18 02:16:09;;;;;;;2.42;1.63;;;13.10;99.90;;;;;;4975426;28;20089;-72
2022/10/18 02:18:43;;;;;;;3.47;1.70;;;13.20;99.90;;;;;;4974220;28;20427;-71
2022/10/18 02:21:14;;;;;;;10.70;1.92;;;13.10;99.90;;;;;;4977884;28;20031;-72
2022/10/18 02:23:42;;;;;;;4.63;1.25;;;13.10;99.90;;;;;;4973580;28;20447;-71
2022/10/18 02:26:08;;;;;;;5.97;1.33;;;13.10;99.90;;;;;;4980431;28;20038;-71
2022/10/18 02:28:33;;;;;;;3.03;1.52;;;13.10;99.90;;;;;;4975054;28;20042;-73
2022/10/18 02:31:05;;;;;;;2.20;1.40;;;13.10;99.90;;;;;;4980005;28;20070;-72
2022/10/18 02:34:01;;;;;;;2.83;1.48;;;13.00;99.90;;;;;;4979119;28;20034;-71
2022/10/18 02:36:33;;;;;;;2.25;1.50;;;13.00;99.90;;;;;;4973655;28;20126;-72
2022/10/18 02:39:09;;;;;;;7.30;1.50;;;13.00;99.90;;;;;;4970332;28;20101;-72
2022/10/18 02:41:35;;;;;;;2.60;1.27;;;12.90;99.90;;;;;;4979428;28;20039;-71
2022/10/18 02:44:01;;;;;;;2.00;1.30;;;12.80;99.90;;;;;;4978021;28;20045;-71
2022/10/18 02:46:26;;;;;;;1.40;1.17;;;12.80;99.90;;;;;;4979848;28;20129;-70
2022/10/18 02:48:52;;;;;;;4.82;1.50;;;12.80;99.90;;;;;;4975201;28;20038;-71
2022/10/18 02:51:17;;;;;;;2.53;1.08;;;12.70;99.90;;;;;;4979242;28;20070;-72
2022/10/18 02:53:43;;;;;;;1.90;1.30;;;12.70;99.90;;;;;;4978497;28;20885;-71
2022/10/18 02:56:08;;;;;;;3.28;1.40;;;12.70;99.90;;;;;;4976880;28;20073;-72
2022/10/18 02:58:34;;;;;;;1.08;0.85;;;12.70;99.90;;;;;;4978710;28;20034;-71
2022/10/18 03:01:00;;;;;;;3.75;1.20;;;12.70;99.90;;;;;;4977753;28;20117;-71
2022/10/18 03:03:25;;;;;;;4.18;1.20;;;12.70;99.90;;;;;;4977255;28;20038;-71
2022/10/18 03:05:51;;;;;;;3.60;2.05;;;12.70;99.90;;;;;;4977951;28;20077;-71
2022/10/18 03:08:17;;;;;;;3.35;1.42;;;12.60;99.90;;;;;;4974205;28;20038;-71
2022/10/18 03:10:44;;;;;;;1.75;1.20;;;12.60;99.90;;;;;;4979308;28;20058;-71
2022/10/18 03:13:10;;;;;;;2.50;1.30;;;12.60;99.90;;;;;;4975673;28;20034;-70
2022/10/18 03:15:35;;;;;;;1.83;1.15;;;12.60;99.90;;;;;;4974092;28;20573;-71
2022/10/18 03:18:01;;;;;;;4.03;1.10;;;12.60;99.90;;;;;;4979691;28;20042;-73
2022/10/18 03:20:27;;;;;;;2.97;1.38;;;12.50;99.90;;;;;;4975776;28;20070;-72
2022/10/18 03:22:52;;;;;;;1.92;1.00;;;12.50;99.90;;;;;;4976068;28;20096;-74
2022/10/18 03:25:18;;;;;;;7.95;1.42;;;12.50;99.90;;;;;;4978969;28;20515;-71
2022/10/18 03:27:44;;;;;;;3.38;1.30;;;12.50;99.90;;;;;;4980213;28;20043;-72
2022/10/18 03:30:12;;;;;;;2.55;1.23;;;12.50;99.90;;;;;;4978580;28;20458;-72
2022/10/18 03:32:39;;;;;;;1.05;0.95;;;12.50;99.90;;;;;;4974974;28;20034;-70
2022/10/18 03:35:05;;;;;;;3.53;0.90;;;12.50;99.90;;;;;;4975612;28;20751;-72
2022/10/18 03:37:31;;;;;;;3.78;1.23;;;12.50;99.90;;;;;;4980603;28;20042;-72
2022/10/18 03:39:56;;;;;;;1.83;1.30;;;12.50;99.90;;;;;;4978847;28;20049;-71
2022/10/18 03:42:22;;;;;;;2.90;1.25;;;12.40;99.90;;;;;;4980934;28;20038;-71
2022/10/18 03:44:47;;;;;;;3.03;0.95;;;12.40;99.90;;;;;;4985320;28;20048;-72
2022/10/18 03:47:13;;;;;;;2.80;0.80;;;12.40;99.90;;;;;;4977980;28;20038;-72
2022/10/18 03:49:38;;;;;;;3.20;1.00;;;12.30;99.90;;;;;;4977685;28;20050;-71
2022/10/18 03:52:04;;;;;;;2.95;1.00;;;12.30;99.90;;;;;;4973438;28;20042;-71
2022/10/18 03:54:30;;;;;;;3.83;0.77;;;12.30;99.90;;;;;;4983126;28;20435;-71
2022/10/18 03:56:55;;;;;;;1.27;0.93;;;12.30;99.90;;;;;;4977336;28;20046;-73
2022/10/18 03:59:21;;;;;;;0.98;0.80;;;12.20;99.90;;;;;;4979692;28;20126;-71
2022/10/18 04:01:47;;;;;;;3.70;1.10;;;12.20;99.90;;;;;;4983129;28;20042;-71
2022/10/18 04:04:13;;;;;;;3.72;1.10;;;12.20;99.90;;;;;;4979099;28;20514;-72
2022/10/18 04:06:40;;;;;;;1.40;0.80;;;12.20;99.90;;;;;;4980698;28;20046;-72
2022/10/18 04:09:06;;;;;;;1.08;0.98;;;12.10;99.90;;;;;;4975132;28;20027;-70
2022/10/18 04:11:32;;;;;;;1.90;1.10;;;12.10;99.90;;;;;;4979158;28;20093;-70
2022/10/18 04:13:58;;;;;;;1.05;0.70;;;12.10;99.90;;;;;;4977087;28;20030;-71
2022/10/18 04:16:24;;;;;;;1.95;0.85;;;12.00;99.90;;;;;;4974792;28;20045;-71
2022/10/18 04:18:49;;;;;;;4.70;1.10;;;12.00;99.90;;;;;;4976997;28;20081;-71
2022/10/18 04:21:15;;;;;;;1.27;0.90;;;12.00;99.90;;;;;;4974811;28;20062;-71
2022/10/18 04:23:41;;;;;;;2.70;0.88;;;11.90;99.90;;;;;;4974925;28;20046;-70
2022/10/18 04:26:06;;;;;;;2.70;0.80;;;11.90;99.90;;;;;;4980943;28;20031;-70
2022/10/18 04:28:33;;;;;;;3.28;0.95;;;11.90;99.90;;;;;;4973838;28;20027;-70
2022/10/18 04:30:59;;;;;;;3.15;0.90;;;11.90;99.90;;;;;;4972958;28;20038;-70
2022/10/18 04:33:25;;;;;;;2.90;1.00;;;11.90;99.90;;;;;;4968618;28;20035;-69
2022/10/18 04:35:52;;;;;;;4.15;1.33;;;11.80;99.90;;;;;;4974879;28;20087;-69
2022/10/18 04:38:18;;;;;;;3.83;1.15;;;11.80;99.90;;;;;;4975754;28;20038;-70
2022/10/18 04:40:44;;;;;;;6.40;1.25;;;11.80;99.90;;;;;;4970678;28;20042;-70
2022/10/18 04:43:09;;;;;;;2.13;0.93;;;11.80;99.90;;;;;;4975729;28;20353;-71
2022/10/18 04:45:35;;;;;;;2.58;0.90;;;11.80;99.90;;;;;;4967915;28;20035;-72
2022/10/18 04:48:01;;;;;;;1.65;0.95;;;11.80;99.90;;;;;;4979620;28;20035;-70
2022/10/18 04:50:27;;;;;;;4.38;0.90;;;11.80;99.90;;;;;;4978117;28;20046;-71
2022/10/18 04:52:52;;;;;;;2.53;0.90;;;11.80;99.90;;;;;;4974291;28;20122;-71
2022/10/18 04:55:18;;;;;;;1.42;1.00;;;11.70;99.90;;;;;;4977041;28;20030;-70
2022/10/18 04:57:44;;;;;;;3.10;1.10;;;11.70;99.90;;;;;;4987569;28;20562;-70
2022/10/18 05:00:10;;;;;;;3.53;1.13;;;11.70;99.90;;;;;;4977350;28;20117;-70
2022/10/18 05:02:36;;;;;;;4.93;1.35;;;11.70;99.90;;;;;;4974566;28;20026;-71
2022/10/18 05:05:03;;;;;;;3.58;0.93;;;11.70;99.90;;;;;;4966921;28;20034;-70
2022/10/18 05:07:28;;;;;;;4.25;0.98;;;11.70;99.90;;;;;;4967850;28;20026;-71
2022/10/18 05:09:54;;;;;;;4.57;1.30;;;11.60;99.90;;;;;;4977576;28;20041;-71
2022/10/18 05:12:21;;;;;;;3.45;1.13;;;11.60;99.90;;;;;;4978019;28;20050;-71
2022/10/18 05:14:46;;;;;;;4.30;0.80;;;11.60;99.90;;;;;;4985941;28;20030;-72
2022/10/18 05:17:12;;;;;;;2.38;1.40;;;11.60;99.90;;;;;;4978612;28;20479;-71
2022/10/18 05:19:38;;;;;;;4.00;0.82;;;11.60;99.90;;;;;;4986878;28;20110;-70
2022/10/18 05:22:03;;;;;;;5.93;1.00;;;11.60;99.90;;;;;;4976802;28;20030;-72
2022/10/18 05:24:29;;;;;;;2.55;1.30;;;11.60;99.90;;;;;;4975058;28;20097;-73
2022/10/18 05:26:54;;;;;;;2.78;0.95;;;11.60;99.90;;;;;;4982112;28;20438;-71
2022/10/18 05:29:20;;;;;;;2.15;1.08;;;11.60;99.90;;;;;;4962819;28;20042;-70
2022/10/18 05:31:47;;;;;;;3.58;1.00;;;11.50;99.90;;;;;;4971453;28;20106;-72
2022/10/18 05:34:12;;;;;;;2.92;1.20;;;11.50;99.90;;;;;;4967490;28;20053;-72
2022/10/18 05:36:38;;;;;;;4.00;1.10;;;11.50;99.90;;;;;;4964633;28;20138;-71
2022/10/18 05:39:04;;;;;;;2.80;1.00;;;11.50;99.90;;;;;;4974396;28;20038;-71
2022/10/18 05:41:30;;;;;;;5.72;1.40;;;11.50;99.90;;;;;;4973247;28;20069;-71
2022/10/18 05:43:56;;;;;;;4.63;1.10;;;11.50;99.90;;;;;;4968585;28;20582;-72
2022/10/18 05:46:21;;;;;;;3.63;1.17;;;11.60;99.90;;;;;;4972366;28;20121;-71
2022/10/18 05:48:50;;;;;;;4.05;1.17;;;11.60;99.90;;;;;;4970975;28;20030;-71
2022/10/18 05:51:17;;;;;;;2.13;1.10;;;11.60;99.90;;;;;;4966543;28;20042;-72
2022/10/18 05:53:42;;;;;;;3.88;1.42;;;11.60;99.90;;;;;;4971245;28;20045;-72
2022/10/18 05:56:10;;;;;;;5.93;1.40;;;11.60;99.90;;;;;;4972150;28;20042;-72
2022/10/18 05:58:37;;;;;;;3.17;1.20;;;11.60;99.90;;;;;;4972198;28;20050;-72
2022/10/18 06:01:04;;;;;;;4.20;1.00;;;11.50;99.90;;;;;;4968551;28;20039;-72
2022/10/18 06:03:30;;;;;;;5.15;1.30;;;11.50;99.90;;;;;;4971356;28;20054;-72
2022/10/18 06:06:08;;;;;;;6.97;1.40;;;11.50;99.90;;;;;;4964413;28;20034;-71
2022/10/18 06:08:34;;;;;;;4.68;1.27;;;11.50;99.90;;;;;;4965811;28;20081;-72
2022/10/18 06:11:08;;;;;;;9.45;1.40;;;11.50;99.90;;;;;;4972627;28;20039;-72
2022/10/18 06:13:34;;;;;;;6.53;1.20;;;11.50;99.90;;;;;;4974275;28;20471;-72
2022/10/18 06:15:59;;;;;;;1.38;0.98;;;11.40;99.90;;;;;;4969067;28;20116;-71
2022/10/18 06:18:25;;;;;;;2.30;0.90;;;11.40;99.90;;;;;;4973765;28;20082;-71
2022/10/18 06:20:58;;;;;;;2.75;0.98;;;11.40;99.90;;;;;;4973314;28;20034;-72
2022/10/18 06:23:24;;;;;;;2.45;1.00;;;11.40;99.90;;;;;;4971720;28;20050;-71
2022/10/18 06:25:50;;;;;;;2.45;1.38;;;11.40;99.90;;;;;;4974262;28;20045;-71
2022/10/18 06:28:15;;;;;;;3.78;0.90;;;11.30;99.90;;;;;;4974392;28;20030;-71
2022/10/18 06:30:41;;;;;;;1.13;0.80;;;11.30;99.90;;;;;;4970897;28;20081;-71
2022/10/18 06:33:07;;;;;;;1.85;1.08;;;11.30;99.90;;;;;;4968684;28;20035;-71
2022/10/18 06:35:32;;;;;;;3.25;1.10;;;11.30;99.90;;;;;;4971912;28;20046;-71
2022/10/18 06:37:58;;;;;;;3.00;0.90;;;11.30;99.90;;;;;;4970217;28;20038;-71
2022/10/18 06:40:23;;;;;;;2.97;0.80;;;11.30;99.90;;;;;;4972928;28;20129;-71
2022/10/18 06:42:49;;;;;;;3.58;0.82;;;11.30;99.90;;;;;;4970161;28;20117;-71
2022/10/18 06:45:17;;;;;;;2.13;1.13;;;11.30;99.90;;;;;;4965843;28;20034;-70
2022/10/18 06:47:42;;;;;;;1.92;0.88;;;11.30;99.90;;;;;;4971082;28;20375;-71
2022/10/18 06:50:10;;;;;;;2.45;1.13;;;11.30;99.90;;;;;;4969347;28;20037;-70
2022/10/18 06:52:35;;;;;;;10.40;1.30;;;11.40;99.90;;;;;;4972415;28;20039;-70
2022/10/18 06:55:01;;;;;;;6.25;1.17;;;11.40;99.90;;;;;;4975161;28;20057;-72
2022/10/18 06:57:27;;;;;;;8.18;1.48;;;11.40;99.90;;;;;;4971663;28;20063;-71
2022/10/18 06:59:52;;;;;;;9.55;1.55;;;11.40;99.90;;;;;;4976832;28;20073;-70
2022/10/18 07:02:18;;;;;;;9.38;0.80;;;11.50;99.90;;;;;;4971472;28;20038;-71
2022/10/18 07:04:43;;;;;;;3.55;0.98;;;11.50;99.90;;;;;;4972275;28;20125;-71
2022/10/18 07:07:09;;;;;;;9.02;1.55;;;11.50;99.90;;;;;;4973580;28;20526;-71
2022/10/18 07:09:34;;;;;;;4.90;0.88;;;11.60;99.90;;;;;;4977355;28;20454;-72
2022/10/18 07:12:00;;;;;;;3.20;0.77;;;11.60;99.90;;;;;;4971675;28;20053;-72
2022/10/18 07:14:26;;;;;;;4.03;0.93;;;11.60;99.90;;;;;;4973808;28;20039;-71
2022/10/18 07:16:51;;;;;;;6.43;1.40;;;11.60;99.90;;;;;;4972411;28;20101;-71
2022/10/18 07:19:17;;;;;;;4.65;1.00;;;11.60;99.90;;;;;;4974222;28;20093;-71
2022/10/18 07:21:42;;;;;;;3.63;0.88;;;11.70;99.90;;;;;;4970685;28;20039;-71
2022/10/18 07:24:08;;;;;;;9.15;1.88;;;11.70;99.90;;;;;;4975866;28;20069;-71
2022/10/18 07:26:34;;;;;;;5.43;0.95;;;11.70;99.90;;;;;;4974330;28;20043;-71
2022/10/18 07:29:05;;;;;;;3.85;0.88;;;11.70;99.90;;;;;;4972055;28;20051;-72
2022/10/18 07:31:32;;;;;;;6.75;1.15;;;11.80;99.90;;;;;;4970422;28;20094;-72
2022/10/18 07:33:58;;;;;;;1.80;0.60;;;11.80;99.90;;;;;;4971890;28;20042;-72
2022/10/18 07:36:24;;;;;;;2.53;0.80;;;11.80;99.90;;;;;;4973081;28;20043;-71
2022/10/18 07:38:53;;;;;;;2.75;1.00;;;11.90;99.90;;;;;;4972575;28;20511;-72
2022/10/18 07:41:19;;;;;;;1.98;0.68;;;11.90;99.90;;;;;;4973883;28;20847;-72
2022/10/18 07:43:46;;;;;;;2.45;0.93;;;12.00;99.90;;;;;;4969337;28;20601;-72
2022/10/18 07:46:13;;;;;;;5.93;1.60;;;12.00;99.90;;;;;;4969618;28;20406;-71
2022/10/18 07:48:39;;;;;;;2.13;0.85;;;12.00;99.90;;;;;;4976646;28;20026;-72
2022/10/18 07:51:05;;;;;;;3.35;0.88;;;12.10;99.90;;;;;;4973804;28;20100;-70
2022/10/18 07:53:30;;;;;;;1.48;0.80;;;12.20;99.90;;;;;;4975245;28;20051;-72
2022/10/18 07:56:10;;;;;;;5.22;1.08;;;12.20;99.90;;;;;;4973086;28;20030;-70
2022/10/18 07:58:36;;;;;;;2.77;1.30;;;12.30;99.90;;;;;;4976132;28;20034;-71
2022/10/18 08:01:03;;;;;;;8.18;1.17;;;12.30;99.90;;;;;;4970980;28;20045;-71
2022/10/18 08:03:29;;;;;;;2.42;1.13;;;12.40;99.90;;;;;;4971170;28;20046;-71
2022/10/18 08:05:54;;;;;;;25.17;2.50;;;12.40;99.90;;;;;;4975645;28;20038;-71
2022/10/18 08:08:21;;;;;;;5.38;1.88;;;12.40;99.90;;;;;;4974521;28;20038;-72
2022/10/18 08:10:47;;;;;;;5.18;1.95;;;12.50;99.90;;;;;;4970343;28;20042;-71
2022/10/18 08:13:13;;;;;;;4.00;1.90;;;12.50;99.90;;;;;;4970690;28;20031;-71
2022/10/18 08:15:39;;;;;;;1.88;1.30;;;12.60;99.90;;;;;;4974465;28;20044;-72
2022/10/18 08:18:05;;;;;;;2.55;1.10;;;12.60;99.90;;;;;;4971399;28;20042;-71
2022/10/18 08:20:32;;;;;;;3.03;1.25;;;12.70;99.90;;;;;;4972269;28;20069;-71
2022/10/18 08:22:58;;;;;;;2.88;1.70;;;12.80;99.90;;;;;;4974226;28;20035;-71
2022/10/18 08:25:23;;;;;;;3.22;1.90;;;12.80;99.90;;;;;;4974275;28;20038;-70
2022/10/18 08:27:49;;;;;;;3.67;1.70;;;12.90;99.90;;;;;;4971871;28;20035;-72
2022/10/18 08:30:15;;;;;;;3.92;1.70;;;13.00;99.90;;;;;;4974654;28;20296;-71
2022/10/18 08:32:40;;;;;;;3.83;1.90;;;13.00;99.90;;;;;;4972099;28;20398;-73
2022/10/18 08:35:06;;;;;;;7.28;1.70;;;13.20;99.90;;;;;;4971591;28;20042;-72
2022/10/18 08:37:32;;;;;;;9.45;2.22;;;13.30;99.90;;;;;;4971068;28;20883;-71
2022/10/18 08:39:58;;;;;;;5.38;1.83;;;13.40;99.90;;;;;;4971527;28;20031;-71
2022/10/18 08:42:53;;;;;;;6.88;2.30;;;13.50;99.90;;;;;;4970565;28;20045;-71
2022/10/18 08:45:19;;;;;;;8.70;1.92;;;13.60;99.90;;;;;;4968773;28;20448;-71
2022/10/18 08:47:48;;;;;;;7.35;2.42;;;13.80;99.90;;;;;;4974239;28;20039;-71
2022/10/18 08:50:15;;;;;;;4.88;2.20;;;13.80;99.90;;;;;;4971213;28;20034;-71
2022/10/18 08:53:13;;;;;;;8.93;2.30;;;13.90;99.90;;;;;;4968112;28;20427;-73
2022/10/18 08:55:46;;;;;;;8.18;2.00;;;14.10;99.90;;;;;;4967726;28;20126;-71
2022/10/18 08:58:15;;;;;;;6.88;1.77;;;14.20;99.90;;;;;;4968037;28;20035;-71
2022/10/18 09:00:48;;;;;;;5.80;1.67;;;14.30;99.90;;;;;;4971264;28;20037;-71
2022/10/18 09:03:32;;;;;;;12.05;2.35;;;14.40;99.90;;;;;;4971254;28;20046;-71
2022/10/18 09:06:09;;;;;;;7.28;1.60;;;14.50;99.90;;;;;;4967515;28;20039;-71
2022/10/18 09:08:47;;;;;;;4.60;1.08;;;14.50;99.90;;;;;;4974416;28;20054;-72
2022/10/18 09:11:31;;;;;;;7.18;1.55;;;14.60;99.90;;;;;;4968945;28;20046;-72
2022/10/18 09:14:40;;;;;;;8.30;1.30;;;14.70;99.90;;;;;;4968396;28;20432;-70
2022/10/18 09:17:20;;;;;;;3.78;1.48;;;14.80;99.90;;;;;;4944541;28;20034;-72
2022/10/18 09:19:54;;;;;;;6.95;1.40;;;14.80;99.90;;;;;;4969209;28;20125;-71
2022/10/18 09:22:38;;;;;;;6.05;1.40;;;14.90;99.90;;;;;;4968800;28;20050;-71
2022/10/18 09:25:17;;;;;;;9.00;1.55;;;15.00;99.90;;;;;;4970431;28;20046;-71
2022/10/18 09:28:07;;;;;;;5.38;1.08;;;15.00;99.90;;;;;;4970068;28;20116;-71
2022/10/18 09:30:39;;;;;;;10.20;1.58;;;15.10;99.90;;;;;;4962654;28;20054;-71
2022/10/18 09:33:28;;;;;;;3.38;1.33;;;15.10;99.90;;;;;;4971506;28;20042;-70
2022/10/18 09:36:03;;;;;;;7.72;0.80;;;15.20;99.90;;;;;;4972968;28;20039;-75
2022/10/18 09:38:36;;;;;;;5.78;1.02;;;15.20;99.90;;;;;;4972924;28;20061;-70
2022/10/18 09:41:17;;;;;;;5.78;0.77;;;15.20;99.90;;;;;;4967427;28;20073;-72
2022/10/18 09:43:57;;;;;;;5.07;0.90;;;15.30;99.90;;;;;;4968504;28;20592;-71
2022/10/18 09:46:29;;;;;;;3.40;0.80;;;15.30;99.90;;;;;;4973021;28;20038;-71
2022/10/18 09:49:06;;;;;;;5.63;0.82;;;15.30;99.90;;;;;;4968217;28;20293;-71
2022/10/18 09:51:40;;;;;;;2.00;0.40;;;15.30;99.90;;;;;;4965616;28;20307;-70
2022/10/18 09:54:28;;;;;;;5.25;0.60;;;15.30;99.90;;;;;;4965647;28;20066;-70
2022/10/18 09:57:04;;;;;;;3.97;0.57;;;15.30;99.90;;;;;;4965497;28;20034;-71
2022/10/18 09:59:37;;;;;;;8.60;1.15;;;15.30;99.90;;;;;;4970851;28;20450;-72
2022/10/18 10:02:03;;;;;;;3.03;0.30;;;15.40;99.90;;;;;;4972350;28;20037;-72
2022/10/18 10:04:29;;;;;;;2.58;0.30;;;15.40;99.90;;;;;;4967014;28;20276;-70
2022/10/18 10:06:57;;;;;;;4.05;0.63;;;15.50;99.90;;;;;;4975698;28;20043;-72
2022/10/18 10:09:36;;;;;;;4.07;0.50;;;15.50;99.90;;;;;;4970783;28;20047;-71
2022/10/18 10:12:02;;;;;;;6.38;0.57;;;15.50;99.90;;;;;;4965255;28;20053;-71
2022/10/18 10:14:29;;;;;;;2.33;0.35;;;15.60;99.90;;;;;;4971325;28;20552;-71
2022/10/18 10:17:19;;;;;;;2.35;0.50;;;15.60;99.90;;;;;;4974034;28;20454;-73
2022/10/18 10:20:12;;;;;;;7.00;0.50;;;15.60;99.90;;;;;;4970183;28;20076;-71
2022/10/18 10:22:40;;;;;;;4.07;0.85;;;15.70;99.90;;;;;;4963618;28;20077;-72
2022/10/18 10:25:17;;;;;;;4.68;0.50;;;15.70;99.90;;;;;;4967629;28;20035;-72
2022/10/18 10:27:44;;;;;;;6.88;0.65;;;15.70;99.90;;;;;;4973820;28;20121;-72
2022/10/18 10:30:23;;;;;;;3.58;0.75;;;15.80;99.90;;;;;;4973266;28;20062;-70
2022/10/18 10:32:52;;;;;;;3.55;0.60;;;15.80;99.90;;;;;;4975659;28;20041;-70
2022/10/18 10:35:33;;;;;;;3.05;0.47;;;15.90;99.90;;;;;;4974993;28;20081;-71
2022/10/18 10:38:00;;;;;;;8.07;0.60;;;15.90;99.90;;;;;;4976605;28;20038;-72
2022/10/18 10:40:49;;;;;;;7.28;0.95;;;15.90;99.90;;;;;;4967796;28;20042;-70
2022/10/18 10:43:36;;;;;;;3.15;0.70;;;15.90;99.90;;;;;;4960262;28;20054;-71
2022/10/18 10:46:05;;;;;;;2.58;0.40;;;16.00;99.90;;;;;;4975970;28;20035;-71
2022/10/18 10:48:33;;;;;;;6.53;0.90;;;16.00;99.90;;;;;;4974688;28;20044;-71
2022/10/18 10:51:08;;;;;;;7.72;1.25;;;16.00;99.90;;;;;;4970467;28;20752;-71
2022/10/18 10:53:39;;;;;;;3.95;0.43;;;16.00;99.90;;;;;;4969362;28;20046;-72
2022/10/18 10:56:05;;;;;;;;;;;16.10;99.90;;;;;;4966557;28;20035;-71
2022/10/18 10:58:38;;;;;;;2.65;0.38;;;16.20;99.90;;;;;;4970895;28;20024;-72
2022/10/18 11:01:34;;;;;;;1.38;0.30;;;16.20;99.90;;;;;;4966610;28;20097;-70
2022/10/18 11:04:20;;;;;;;3.92;0.85;;;16.20;99.90;;;;;;4958315;28;20603;-72
2022/10/18 11:07:07;;;;;;;3.45;0.57;;;16.20;99.90;;;;;;4970888;28;20364;-72
2022/10/18 11:09:37;;;;;;;3.38;0.73;;;16.20;99.90;;;;;;4970602;28;20050;-72
2022/10/18 11:12:32;;;;;;;3.53;0.35;;;16.20;99.90;;;;;;4972903;28;20053;-70
2022/10/18 11:15:13;;;;;;;5.30;0.32;;;16.20;99.90;;;;;;4969041;28;20038;-72
2022/10/18 11:17:47;;;;;;;1.17;0.30;;;16.20;99.90;;;;;;4968318;28;20125;-71
2022/10/18 11:20:18;;;;;;;2.90;0.95;;;16.20;99.90;;;;;;4976837;28;20045;-70
2022/10/18 11:22:51;;;;;;;11.05;0.52;;;16.20;99.90;;;;;;4972295;28;20047;-70
2022/10/18 11:25:17;;;;;;;3.67;0.40;;;16.20;99.90;;;;;;4973430;28;20046;-71
2022/10/18 11:27:55;;;;;;;4.38;0.30;;;16.20;99.90;;;;;;4972224;28;20042;-69
2022/10/18 11:30:59;;;;;;;4.85;0.35;;;16.20;99.90;;;;;;4972261;28;20042;-70
2022/10/18 11:33:42;;;;;;;5.28;0.70;;;16.30;99.90;;;;;;4970543;28;20046;-72
2022/10/18 11:36:26;;;;;;;2.17;0.55;;;16.30;99.90;;;;;;4967782;28;20469;-70
2022/10/18 11:39:36;;;;;;;7.10;0.63;;;16.40;99.90;;;;;;4968174;28;20035;-72
2022/10/18 11:42:32;;;;;;;2.33;0.35;;;16.30;99.90;;;;;;4959191;28;20077;-72
2022/10/18 11:45:21;;;;;;;5.25;0.50;;;16.40;99.90;;;;;;4951302;28;20043;-71
2022/10/18 11:47:55;;;;;;;7.47;0.60;;;16.40;99.90;;;;;;4969479;28;20035;-70
2022/10/18 11:50:50;;;;;;;2.28;0.45;;;16.40;99.90;;;;;;4971719;28;20729;-69
2022/10/18 11:53:42;;;;;;;3.88;0.90;;;16.30;99.90;;;;;;4967614;28;20403;-69
2022/10/18 11:56:18;;;;;;;1.98;0.30;;;16.40;99.90;;;;;;4968564;28;20058;-71
2022/10/18 11:58:50;;;;;;;2.88;0.50;;;16.40;99.90;;;;;;4969722;28;20241;-70
2022/10/18 12:01:27;;;;;;;1.85;0.47;;;16.40;99.90;;;;;;4972804;28;20101;-70
2022/10/18 12:04:16;;;;;;;3.80;0.90;;;16.50;99.90;;;;;;4969675;28;20803;-72
2022/10/18 12:06:45;;;;;;;1.73;0.22;;;16.50;99.90;;;;;;4969458;28;20042;-72
2022/10/18 12:09:26;;;;;;;2.88;0.32;;;16.50;99.90;;;;;;4972568;28;20034;-70
2022/10/18 12:11:57;;;;;;;5.07;0.50;;;16.50;99.90;;;;;;4977922;28;20042;-71
2022/10/18 12:14:43;;;;;;;2.55;0.35;;;16.40;99.90;;;;;;4971450;28;20058;-71
2022/10/18 12:17:21;;;;;;;6.63;0.85;;;16.50;99.90;;;;;;4971183;28;20043;-71
2022/10/18 12:19:50;;;;;;;3.65;0.40;;;16.50;99.90;;;;;;4972488;28;20034;-72
2022/10/18 12:22:20;;;;;;;4.85;0.40;;;16.60;99.90;;;;;;4974478;28;20448;-72
2022/10/18 12:24:45;;;;;;;4.10;1.38;;;16.50;99.90;;;;;;4969572;28;20069;-70
2022/10/18 12:27:14;;;;;;;3.30;0.35;;;16.50;99.90;;;;;;4967683;28;20042;-72
2022/10/18 12:29:50;;;;;;;3.55;0.70;;;16.50;99.90;;;;;;4970349;28;21152;-70
2022/10/18 12:32:25;;;;;;;4.07;0.70;;;16.60;99.90;;;;;;4972765;28;20062;-70
2022/10/18 12:34:59;;;;;;;3.85;0.43;;;16.60;99.90;;;;;;4972374;28;20060;-70
2022/10/18 12:37:25;;;;;;;6.65;1.02;;;16.60;99.90;;;;;;4971185;28;20493;-71
2022/10/18 12:40:22;;;;;;;1.58;0.30;;;16.60;99.90;;;;;;4973560;28;20035;-72
2022/10/18 12:42:50;;;;;;;1.98;0.47;;;16.60;99.90;;;;;;4957940;28;20134;-70
2022/10/18 12:45:16;;;;;;;5.68;1.55;;;16.60;99.90;;;;;;4969090;28;20444;-72
2022/10/18 12:47:42;;;;;;;3.17;0.35;;;16.60;99.90;;;;;;4972521;28;20045;-73
2022/10/18 12:50:26;;;;;;;8.35;0.73;;;16.60;99.90;;;;;;4972085;28;20039;-71
2022/10/18 12:53:06;;;;;;;4.25;0.40;;;16.50;99.90;;;;;;4973522;28;20113;-72
2022/10/18 12:55:37;;;;;;;3.53;0.30;;;16.50;99.90;;;;;;4970420;28;20478;-72
2022/10/18 12:58:25;;;;;;;2.47;0.20;;;16.50;99.90;;;;;;4955575;28;20046;-72
2022/10/18 13:00:53;;;;;;;2.22;0.20;;;16.50;99.90;;;;;;4973173;28;20030;-71
2022/10/18 13:03:25;;;;;;;1.13;0.10;;;16.50;99.90;;;;;;4974884;28;20431;-71
2022/10/18 13:05:57;;;;;;;4.28;0.30;;;16.50;99.90;;;;;;4972541;28;20157;-71